Main page
METAR-TAF:

METAR-TAF

Airports :

Des Moines International Airport

Des Moines, Iowa, United States

latitude: 41-32-16N, longitude: 093-39-58W, elevation: 954 ft

Current weather observation

The report was made 49 minutes ago, at 18:54 UTC
Wind 14 mph from the Southwest
Temperature 55°F
Humidity 44%
Pressure 30.04 in. Hg
Visibility: 10 miles
Clear sky

METAR: KDSM 281854Z 23012KT 10SM CLR 13/01 A3004 RMK AO2 SLP176 T01330006

Time: 13:43 (19:43 UTC)

Forecast

The report was made 2 hours and 22 minutes ago, at 17:21 UTC
Forecast valid from 28 at 18 UTC to 29 at 18 UTC
Wind 12 mph from the Southwest
Visibility: 6 miles
Clear sky
From 29 at 1200 UTC
Wind 6 mph from the West
Visibility: 6 miles
Few clouds at a height of 25000 ft
From 29 at 1600 UTC
Wind 17 mph from the North/Northwest with gusts up to 26 mph
Visibility: 6 miles
Few clouds at a height of 25000 ft

TAF: KDSM 281721Z 2818/2918 23010KT P6SM SKC FM291200 28005KT P6SM FEW250 FM291600 34015G23KT P6SM FEW250

Weather observations and forecasts of more than 4000 airports (METAR and TAF reports).

The available stations are represented by yellow and red dots on the map.

Hover mouse over dot to see the name of the station.

Then click to see weather observations and forecasts.

To change the map : click on the green buttons with a black cross to zoom in, on the green button with a dash to zoom out, or on the green arrows for adjacent maps.


METAR-TAF: